27 giugno 2022

Tempo Codice Tempo metereologico Temp. Vista Base nuvolosa Vento METAR/SPECI
5:00 pm
V
61 °F 6¼ mi+ - 330° 330° 10 kt METAR LFHP 271500Z AUTO 33010KT CAVOK 16/12 Q1021
4:30 pm
V
59 °F 6¼ mi+ 9.200 ft 300° 300° 13 kt METAR LFHP 271430Z AUTO 30013KT 9999 FEW034/// OVC092/// ///CB 15/12 Q1021
4:00 pm
V
66 °F 6¼ mi+ - Var Var 3 kt METAR LFHP 271400Z AUTO VRB03KT 9999 ///TCU 19/11 Q1021
3:30 pm
V
66 °F 6¼ mi+ - 030° 030° 4 kt METAR LFHP 271330Z AUTO 03004KT 330V070 CAVOK 19/10 Q1021
3:00 pm
V
64 °F 6¼ mi+ - 020° 020° 4 kt METAR LFHP 271300Z AUTO 02004KT 330V060 CAVOK 18/12 Q1020
2:30 pm
V
64 °F 6¼ mi+ - Var Var 3 kt METAR LFHP 271230Z AUTO VRB03KT CAVOK 18/12 Q1021
2:00 pm
V
61 °F 6¼ mi+ 10.000 ft 330° 330° 5 kt METAR LFHP 271200Z AUTO 33005KT 290V360 9999 FEW034/// SCT080/// OVC100/// ///TCU 16/14 Q1021
1:30 pm
V
61 °F 6¼ mi+ - 270° 270° 5 kt METAR LFHP 271130Z AUTO 27005KT 220V310 9999 -RA ///TCU 16/13 Q1021
1:00 pm
V
63 °F 6¼ mi+ 9.400 ft 300° 300° 6 kt METAR LFHP 271100Z AUTO 30006KT 240V330 9999 FEW028/// OVC094/// ///TCU 17/12 Q1021
12:30 pm
V
63 °F 6¼ mi+ 9.200 ft 320° 320° 6 kt METAR LFHP 271030Z AUTO 32006KT 9999 FEW033/// OVC092/// ///TCU 17/11 Q1020
12:00 pm
V
63 °F 6¼ mi+ 10.000 ft 020° 020° 6 kt METAR LFHP 271000Z AUTO 02006KT 9999 -RA FEW036/// SCT054/// OVC100/// ///TCU 17/10 Q1019
11:30 am
V
64 °F 6¼ mi+ - 070° 070° 5 kt METAR LFHP 270930Z AUTO 07005KT 020V150 CAVOK 18/10 Q1019
11:00 am
V
64 °F 6¼ mi+ 13.000 ft 060° 060° 6 kt METAR LFHP 270900Z AUTO 06006KT 010V110 9999 FEW023 BKN130 BKN240 18/10 Q1019
10:30 am
V
63 °F 6¼ mi+ 24.000 ft 090° 090° 4 kt METAR LFHP 270830Z AUTO 09004KT 040V130 9999 FEW015 SCT070 BKN240 17/12 Q1020
10:00 am
V
59 °F 6¼ mi+ 7.000 ft 130° 130° 3 kt METAR LFHP 270800Z AUTO 13003KT 080V180 9999 FEW013 BKN070 BKN240 15/12 Q1020
9:30 am
V
59 °F 6¼ mi+ - Var Var 3 kt METAR LFHP 270730Z AUTO VRB03KT CAVOK 15/12 Q1020
9:00 am
V
57 °F 6¼ mi+ - 030° 030° 2 kt METAR LFHP 270700Z AUTO 03002KT CAVOK 14/11 Q1020

26 giugno 2022

Tempo Codice Tempo metereologico Temp. Vista Base nuvolosa Vento METAR/SPECI
9:00 pm
V
61 °F 6¼ mi+ 6.200 ft 330° 330° 5 kt METAR LFHP 261900Z AUTO 33005KT 250V360 9999 FEW048 BKN062 BKN120 16/13 Q1015
8:30 pm
V
63 °F 6¼ mi+ 13.000 ft 280° 280° 7 kt METAR LFHP 261830Z AUTO 28007KT 240V020 9999 FEW016 OVC130 17/13 Q1014
8:00 pm
V
68 °F 6¼ mi+ - 020° 020° 6 kt METAR LFHP 261800Z AUTO 02006KT 350V050 CAVOK 20/15 Q1013
7:30 pm
V
72 °F 6¼ mi+ - 030° 030° 4 kt METAR LFHP 261730Z AUTO 03004KT 350V070 CAVOK 22/16 Q1013
7:00 pm
V
72 °F 6¼ mi+ - 340° 340° 4 kt METAR LFHP 261700Z AUTO 34004KT 290V040 CAVOK 22/15 Q1013
6:30 pm
V
70 °F 6¼ mi+ - 360° 360° 4 kt METAR LFHP 261630Z AUTO 36004KT 330V050 CAVOK 21/15 Q1013
6:00 pm
V
68 °F 6¼ mi+ - 350° 350° 4 kt METAR LFHP 261600Z AUTO 35004KT 300V040 CAVOK 20/15 Q1013
5:30 pm
V
66 °F 6¼ mi+ 7.200 ft 350° 350° 8 kt METAR LFHP 261530Z AUTO 35008KT 9999 FEW013 BKN072 BKN086 19/15 Q1014
5:00 pm
M
66 °F 6¼ mi+ 1.200 ft 340° 340° 7 kt METAR LFHP 261500Z AUTO 34007KT 320V020 9999 BKN012 BKN058 19/15 Q1014
4:30 pm
M
64 °F 6¼ mi+ 1.100 ft 280° 280° 8 kt METAR LFHP 261430Z AUTO 28008KT 240V320 9999 OVC011/// ///CB 18/14 Q1014
4:00 pm
M
64 °F 6¼ mi+ 1.400 ft 320° 320° 5 kt METAR LFHP 261400Z AUTO 32005KT 200V350 9999 BKN014/// BKN047/// OVC054/// ///CB 18/14 Q1014
3:30 pm
V
64 °F 6¼ mi+ 4.500 ft 270° 270° 4 kt METAR LFHP 261330Z AUTO 27004KT 220V320 9999 FEW013/// BKN045/// BKN058/// ///CB 18/15 Q1014
3:00 pm
M
63 °F 6¼ mi+ 1.400 ft 260° 260° 10 kt METAR LFHP 261300Z AUTO 26010KT 240V300 9999 BKN014 BKN039 OVC050 17/14 Q1014
2:30 pm
V
64 °F 6¼ mi+ 4.000 ft 270° 270° 5 kt METAR LFHP 261230Z AUTO 27005KT 250V320 9999 BKN040 BKN049 OVC058 18/14 Q1014
2:00 pm
V
64 °F 6¼ mi+ 3.600 ft 260° 260° 7 kt METAR LFHP 261200Z AUTO 26007KT 9999 FEW020/// BKN036/// BKN042/// ///CB 18/15 Q1014
1:30 pm
M
66 °F 6¼ mi+ 2.300 ft 260° 260° 6 kt METAR LFHP 261130Z AUTO 26006KT 210V320 9999 SCT014 BKN023 BKN035 19/15 Q1015
1:00 pm
M
66 °F 6¼ mi+ 1.200 ft Var Var 2 kt METAR LFHP 261100Z AUTO VRB02KT 9999 BKN012 OVC018 19/16 Q1015
12:30 pm
M
64 °F 6¼ mi+ 1.200 ft 340° 340° 4 kt METAR LFHP 261030Z AUTO 34004KT 280V070 9999 OVC012 18/15 Q1015
12:00 pm
M
63 °F 6¼ mi+ 1.000 ft Var Var 2 kt METAR LFHP 261000Z AUTO VRB02KT 9999 OVC010 17/14 Q1015
11:30 am
I
61 °F 6¼ mi+ 900 ft Var Var 3 kt METAR LFHP 260930Z AUTO VRB03KT 9999 OVC009 16/14 Q1015
11:00 am
I
59 °F 6¼ mi+ 700 ft Var Var 2 kt METAR LFHP 260900Z AUTO VRB02KT 9999 OVC007 15/14 Q1015
10:30 am
I
59 °F 6¼ mi+ 500 ft 340° 340° 5 kt METAR LFHP 260830Z AUTO 34005KT 9999 OVC005/// ///TCU 15/13 Q1016
10:00 am
L
57 °F 6¼ mi+ 400 ft 310° 310° 3 kt METAR LFHP 260800Z AUTO 31003KT 270V340 9999 OVC004/// ///TCU 14/13 Q1016
9:30 am
I
57 °F 6¼ mi+ 600 ft Var Var 3 kt METAR LFHP 260730Z AUTO VRB03KT 9999 OVC006/// ///CB 14/13 Q1016
9:00 am
I
57 °F 6¼ mi+ 600 ft Var Var 3 kt METAR LFHP 260700Z AUTO VRB03KT 9999 OVC006/// ///TCU 14/13 Q1016

25 giugno 2022

Tempo Codice Tempo metereologico Temp. Vista Base nuvolosa Vento METAR/SPECI
9:00 pm
V
63 °F 6¼ mi+ - Var Var 3 kt METAR LFHP 251900Z AUTO VRB03KT 9999 -RA ///CB 17/15 Q1014
8:30 pm
V
64 °F 6¼ mi+ - Var Var 2 kt METAR LFHP 251830Z AUTO VRB02KT 9999 ///CB 18/15 Q1014
8:00 pm
V
63 °F 6¼ mi+ - 130° 130° 3 kt METAR LFHP 251800Z AUTO 13003KT 090V190 9999 ///CB 17/15 Q1014
7:30 pm
V
63 °F 6¼ mi+ - 290° 290° 3 kt METAR LFHP 251730Z AUTO 29003KT 240V330 9999 ///CB 17/14 Q1013
7:00 pm
V
63 °F 6¼ mi+ - Var Var 2 kt METAR LFHP 251700Z AUTO VRB02KT 9999 RA ///CB 17/14 Q1013
6:30 pm
V
63 °F 6¼ mi+ 6.000 ft 310° 310° 7 kt METAR LFHP 251630Z AUTO 31007KT 250V340 9999 -RA FEW038/// BKN060/// BKN076/// ///CB 17/14 Q1013
6:00 pm
V
63 °F 6¼ mi+ 5.000 ft 240° 240° 6 kt METAR LFHP 251600Z AUTO 24006KT 160V290 9999 -RA VCTS FEW043/// BKN050/// BKN066/// ///CB 17/13 Q1013
5:30 pm
V
72 °F 6¼ mi+ - 210° 210° 6 kt METAR LFHP 251530Z AUTO 21006KT 150V270 9999 TS ///CB 22/12 Q1013
5:00 pm
V
72 °F 6¼ mi+ - 170° 170° 10 - 20 kt METAR LFHP 251500Z AUTO 17010G20KT 130V210 9999 -RA ///CB 22/12 Q1013
Dati più vecchi

Scarica la nostra applicazione

Facile accesso a tutte le previsioni dell'aviazione sul tuo cellulare e tablet.
Con molte caratteristiche non disponibili sul sito web, come il supporto offline e una lista personale di aeroporti.

Noi e le terze parti seguiamo il tuo comportamento in internet sul nostro sito web con i cookie. Se continui, riteniamo che tu sia d'accordo con la nostra politica sui cookie. Per saperne di più